Othello — LXOD — position and weather

sailwx.info

Track history (hours):
 
Tides and Currents Weather Stations Pressure Air Temp Water Temp Dewpoint Dewpoint Depression Visibility Wind Speed Wind Dir Waves Ship Positions

Othello

Last reported at 2015-Jan-25 07:08 UTC. Time now 2015-Jan-26 02:28 UTC.
Position N 39°18' W 009°56'.

Length 104 m; draft 7.3 m.

Type: Ship. MMSI: 253279000.

Date/timePositionNaut miles runAvg speedWind from/ knotsBaromVisibWave heightAir tempDewpointWater temp
2015-Jan-25 07:08N 39°18' W 009°56'710.6
2015-Jan-25 06:29N 39°11' W 009°56'1110.8
2015-Jan-25 05:29N 39°00' W 009°56'1010.8
2015-Jan-25 04:33N 38°50' W 009°56'1110.9
2015-Jan-25 03:34N 38°39' W 009°56'1110.4
2015-Jan-25 02:33N 38°29' W 009°52'1010.6
2015-Jan-25 01:33N 38°19' W 009°49'1010.4
2015-Jan-25 00:34N 38°09' W 009°47'1110.6
2015-Jan-24 23:34N 37°58' W 009°44'1010.3
2015-Jan-24 22:33N 37°48' W 009°40'1110.7
2015-Jan-24 21:33N 37°38' W 009°37'73 8.9
2015-Jan-24 13:25N 36°42' W 008°39'1011.3
2015-Jan-24 12:32N 36°45' W 008°27'1111.1
2015-Jan-24 11:34N 36°48' W 008°14'1111.1
2015-Jan-24 10:33N 36°50' W 008°00'  
2015-Jan-20 16:33N 35°59' W 005°27'7 7.3
2015-Jan-20 15:33N 35°57' W 005°19'3 3.2
2015-Jan-20 14:32N 35°54' W 005°19'0 0.0
2015-Jan-20 13:33N 35°54' W 005°19'0 0.0
2015-Jan-20 12:33N 35°54' W 005°19'1 0.6
2015-Jan-20 11:33N 35°54' W 005°19'1 0.8
2015-Jan-20 10:28N 35°55' W 005°19'0 0.0
2015-Jan-20 09:31N 35°55' W 005°19'0 0.1
2015-Jan-20 08:32N 35°55' W 005°19'23611.3
2015-Jan-19 11:33N 37°25' W 000°47'1312.4
2015-Jan-19 10:32N 37°33' W 000°35'1312.7
2015-Jan-19 09:32N 37°43' W 000°24'13912.1
2015-Jan-18 22:04N 39°46' E 000°57'812.2
2015-Jan-18 21:27N 39°54' E 000°59'1011.7
2015-Jan-18 20:33N 40°04' E 001°02'1111.5
2015-Jan-18 19:33N 40°15' E 001°05'1111.2
2015-Jan-18 18:33N 40°26' E 001°08'1211.5
2015-Jan-18 17:33N 40°37' E 001°11'14 0.4
2015-Jan-17 05:30N 40°25' E 001°04'1414.1
2015-Jan-17 04:31N 40°11' E 001°00'1413.8
2015-Jan-17 03:29N 39°57' E 000°56'15713.0
2015-Jan-16 15:26N 37°35' W 000°29'1213.7
2015-Jan-16 14:34N 37°27' W 000°40'1413.5
2015-Jan-16 13:34N 37°18' W 000°52'22112.7
2015-Jan-15 20:07N 35°60' W 005°10'916.6
2015-Jan-15 19:33N 35°58' W 005°21'  
Track history (hours):
 
Tides and Currents Weather Stations Pressure Air Temp Water Temp Dewpoint Dewpoint Depression Visibility Wind Speed Wind Dir Waves Ship Positions

Othello

Last reported at 2015-Jan-25 07:08 UTC. Time now 2015-Jan-26 02:28 UTC.
Position N 39°18' W 009°56'.

Length 104 m; draft 7.3 m.

Type: Ship. MMSI: 253279000.

Date/timePositionNaut miles runAvg speedWind from/ knotsBaromVisibWave heightAir tempDewpointWater temp
2015-Jan-25 07:08N 39°18' W 009°56'710.6
2015-Jan-25 06:29N 39°11' W 009°56'1110.8
2015-Jan-25 05:29N 39°00' W 009°56'1010.8
2015-Jan-25 04:33N 38°50' W 009°56'1110.9
2015-Jan-25 03:34N 38°39' W 009°56'1110.4
2015-Jan-25 02:33N 38°29' W 009°52'1010.6
2015-Jan-25 01:33N 38°19' W 009°49'1010.4
2015-Jan-25 00:34N 38°09' W 009°47'1110.6
2015-Jan-24 23:34N 37°58' W 009°44'1010.3
2015-Jan-24 22:33N 37°48' W 009°40'1110.7
2015-Jan-24 21:33N 37°38' W 009°37'73 8.9
2015-Jan-24 13:25N 36°42' W 008°39'1011.3
2015-Jan-24 12:32N 36°45' W 008°27'1111.1
2015-Jan-24 11:34N 36°48' W 008°14'1111.1
2015-Jan-24 10:33N 36°50' W 008°00'  
2015-Jan-20 16:33N 35°59' W 005°27'7 7.3
2015-Jan-20 15:33N 35°57' W 005°19'3 3.2
2015-Jan-20 14:32N 35°54' W 005°19'0 0.0
2015-Jan-20 13:33N 35°54' W 005°19'0 0.0
2015-Jan-20 12:33N 35°54' W 005°19'1 0.6
2015-Jan-20 11:33N 35°54' W 005°19'1 0.8
2015-Jan-20 10:28N 35°55' W 005°19'0 0.0
2015-Jan-20 09:31N 35°55' W 005°19'0 0.1
2015-Jan-20 08:32N 35°55' W 005°19'23611.3
2015-Jan-19 11:33N 37°25' W 000°47'1312.4
2015-Jan-19 10:32N 37°33' W 000°35'1312.7
2015-Jan-19 09:32N 37°43' W 000°24'13912.1
2015-Jan-18 22:04N 39°46' E 000°57'812.2
2015-Jan-18 21:27N 39°54' E 000°59'1011.7
2015-Jan-18 20:33N 40°04' E 001°02'1111.5
2015-Jan-18 19:33N 40°15' E 001°05'1111.2
2015-Jan-18 18:33N 40°26' E 001°08'1211.5
2015-Jan-18 17:33N 40°37' E 001°11'14 0.4
2015-Jan-17 05:30N 40°25' E 001°04'1414.1
2015-Jan-17 04:31N 40°11' E 001°00'1413.8
2015-Jan-17 03:29N 39°57' E 000°56'15713.0
2015-Jan-16 15:26N 37°35' W 000°29'1213.7
2015-Jan-16 14:34N 37°27' W 000°40'1413.5
2015-Jan-16 13:34N 37°18' W 000°52'22112.7
2015-Jan-15 20:07N 35°60' W 005°10'916.6
2015-Jan-15 19:33N 35°58' W 005°21'  

Dump ship's entire track history